Time;durP1;ratioP1;P1;durP2;ratioP2;P2;SDS_P1;SDS_P2;PMS_P1;PMS_P2;Temp;Humidity;BMP_temperature;BMP_pressure;BME280_temperature;BME280_humidity;BME280_pressure;Samples;Min_cycle;Max_cycle;Signal;HPM_P1;HPM_P2
2023/12/15 00:02:23;;;;;;;8.48;5.47;;;;;;;9.96;100.00;102450.16;5115057;28;20082;-62
2023/12/15 00:04:50;;;;;;;8.50;5.10;;;;;;;9.97;100.00;102451.84;5082865;28;20051;-63
2023/12/15 00:07:17;;;;;;;8.55;5.32;;;;;;;9.83;100.00;102445.94;5106314;27;20378;-62
2023/12/15 00:09:44;;;;;;;8.65;5.57;;;;;;;9.69;100.00;102453.03;5134146;27;20055;-62
2023/12/15 00:12:12;;;;;;;9.40;5.38;;;;;;;9.83;100.00;102453.41;5134961;27;20047;-63
2023/12/15 00:14:39;;;;;;;7.75;5.05;;;;;;;9.84;100.00;102464.13;5111047;28;20044;-62
2023/12/15 00:17:06;;;;;;;7.32;4.90;;;;;;;9.63;100.00;102459.59;5096958;28;20055;-62
2023/12/15 00:19:34;;;;;;;7.28;5.00;;;;;;;9.53;100.00;102476.03;5115888;28;20052;-62
2023/12/15 00:22:01;;;;;;;7.68;4.85;;;;;;;9.63;100.00;102476.09;5113798;28;20081;-62
2023/12/15 00:24:28;;;;;;;7.93;4.97;;;;;;;9.30;100.00;102470.06;5113267;28;20048;-63
2023/12/15 00:26:59;;;;;;;6.93;4.28;;;;;;;9.49;100.00;102477.66;5104989;28;20051;-63
2023/12/15 00:29:37;;;;;;;8.88;5.88;;;;;;;9.49;100.00;102474.06;5049801;28;20059;-63
2023/12/15 00:32:35;;;;;;;11.77;5.30;;;;;;;9.39;100.00;102479.50;5065370;28;20056;-61
2023/12/15 00:35:03;;;;;;;9.82;5.75;;;;;;;9.28;100.00;102477.72;5095701;28;20586;-63
2023/12/15 00:37:31;;;;;;;8.90;5.90;;;;;;;9.28;100.00;102472.22;5114055;28;20057;-62
2023/12/15 00:39:58;;;;;;;12.75;6.65;;;;;;;9.42;100.00;102470.69;5096073;28;20052;-61
2023/12/15 00:42:25;;;;;;;9.48;6.40;;;;;;;9.45;100.00;102472.94;5098899;28;20055;-62
2023/12/15 00:44:54;;;;;;;13.55;7.05;;;;;;;9.51;100.00;102480.97;5094365;28;20098;-62
2023/12/15 00:47:21;;;;;;;11.35;7.15;;;;;;;9.49;100.00;102482.31;5086642;28;20466;-63
2023/12/15 00:49:49;;;;;;;11.32;7.30;;;;;;;9.56;100.00;102477.41;5115450;28;20047;-61
2023/12/15 00:52:16;;;;;;;14.10;7.47;;;;;;;9.51;100.00;102467.22;5083284;28;20047;-63
2023/12/15 00:54:43;;;;;;;14.60;7.95;;;;;;;9.69;100.00;102476.97;5094653;28;20044;-62
2023/12/15 00:57:10;;;;;;;13.35;7.80;;;;;;;9.73;100.00;102478.91;5093855;28;20056;-64
2023/12/15 00:59:38;;;;;;;12.82;8.20;;;;;;;9.82;100.00;102480.09;5105198;28;20050;-62
2023/12/15 01:02:05;;;;;;;11.18;7.32;;;;;;;9.88;100.00;102470.78;5114286;28;20050;-62
2023/12/15 01:04:33;;;;;;;11.63;7.90;;;;;;;9.78;100.00;102464.38;5114441;28;20052;-62
2023/12/15 01:07:00;;;;;;;13.88;8.30;;;;;;;9.86;100.00;102461.97;5113439;28;20506;-62
2023/12/15 01:09:29;;;;;;;13.18;8.10;;;;;;;10.00;100.00;102457.63;5114924;28;20090;-62
2023/12/15 01:12:02;;;;;;;15.00;8.90;;;;;;;9.89;100.00;102460.56;5101355;28;20051;-64
2023/12/15 01:14:38;;;;;;;14.63;9.65;;;;;;;9.82;100.00;102468.25;5113703;28;20044;-62
2023/12/15 01:17:14;;;;;;;14.80;9.98;;;;;;;9.89;100.00;102458.66;5077078;28;20059;-63
2023/12/15 01:19:44;;;;;;;14.57;9.82;;;;;;;9.88;100.00;102456.19;5060343;28;20052;-62
2023/12/15 01:22:14;;;;;;;14.02;9.25;;;;;;;10.00;100.00;102454.88;5097254;28;20689;-63
2023/12/15 01:24:55;;;;;;;16.45;10.95;;;;;;;9.90;100.00;102463.06;5074649;28;20088;-62
2023/12/15 01:27:23;;;;;;;14.55;9.45;;;;;;;10.16;100.00;102472.34;5073567;28;20044;-62
2023/12/15 01:30:10;;;;;;;14.63;9.95;;;;;;;10.27;100.00;102468.50;5073874;28;20119;-63
2023/12/15 01:32:41;;;;;;;16.48;10.55;;;;;;;10.37;100.00;102468.56;5071335;28;20048;-62
2023/12/15 01:35:09;;;;;;;16.83;10.30;;;;;;;10.18;100.00;102478.41;5073068;28;20059;-63
2023/12/15 01:37:39;;;;;;;13.88;9.93;;;;;;;10.36;100.00;102466.91;5072495;28;20055;-62
2023/12/15 01:40:07;;;;;;;15.10;10.15;;;;;;;10.32;100.00;102479.53;5074032;28;20052;-62
2023/12/15 01:42:35;;;;;;;16.50;10.18;;;;;;;10.22;100.00;102485.00;5073070;28;20052;-62
2023/12/15 01:45:03;;;;;;;17.48;10.40;;;;;;;10.07;100.00;102482.16;5054832;28;20071;-60
2023/12/15 01:47:30;;;;;;;17.63;10.77;;;;;;;10.17;100.00;102482.25;5064301;28;20231;-64
2023/12/15 01:49:58;;;;;;;16.88;10.43;;;;;;;10.27;100.00;102482.28;5072363;28;20064;-62
2023/12/15 01:52:26;;;;;;;17.30;10.50;;;;;;;10.22;100.00;102486.97;5051493;28;20060;-62
2023/12/15 01:54:59;;;;;;;19.77;11.68;;;;;;;10.23;100.00;102488.59;5051957;28;20048;-63
2023/12/15 01:57:27;;;;;;;18.92;11.40;;;;;;;10.03;100.00;102486.53;5051401;28;20049;-61
2023/12/15 01:59:55;;;;;;;18.85;11.27;;;;;;;10.04;100.00;102490.97;5069728;28;20079;-62
2023/12/15 02:02:22;;;;;;;18.17;11.57;;;;;;;10.15;100.00;102501.78;5079169;28;20539;-62
2023/12/15 02:04:49;;;;;;;15.80;11.73;;;;;;;10.15;100.00;102504.53;5079878;28;20447;-63
2023/12/15 02:07:17;;;;;;;22.08;12.52;;;;;;;10.14;100.00;102507.56;5084985;28;20060;-63
2023/12/15 02:09:45;;;;;;;19.60;12.55;;;;;;;10.07;100.00;102513.28;5070711;28;20048;-63
2023/12/15 02:12:12;;;;;;;18.63;12.60;;;;;;;10.15;100.00;102517.47;5069341;28;20055;-63
2023/12/15 02:14:44;;;;;;;20.48;13.18;;;;;;;10.28;100.00;102519.75;5055570;28;20066;-62
2023/12/15 02:17:12;;;;;;;22.02;13.80;;;;;;;10.05;100.00;102523.72;5097814;28;20046;-63
2023/12/15 02:19:40;;;;;;;24.92;14.63;;;;;;;10.02;100.00;102517.94;5105867;28;20655;-62
2023/12/15 02:22:08;;;;;;;21.85;14.63;;;;;;;10.12;100.00;102518.84;5093010;28;20040;-61
2023/12/15 02:24:37;;;;;;;20.77;13.63;;;;;;;10.12;100.00;102521.59;5086621;28;20050;-64
2023/12/15 02:27:04;;;;;;;26.07;13.90;;;;;;;10.01;100.00;102521.75;5104772;28;20414;-62
2023/12/15 02:29:32;;;;;;;24.33;13.43;;;;;;;10.09;100.00;102516.59;5112405;28;20293;-61
2023/12/15 02:31:59;;;;;;;21.45;12.77;;;;;;;10.06;100.00;102528.13;5113115;28;20047;-62
2023/12/15 02:34:27;;;;;;;23.63;14.27;;;;;;;9.89;100.00;102526.63;5103676;28;20048;-63
2023/12/15 02:36:56;;;;;;;24.17;13.55;;;;;;;10.05;100.00;102523.72;5092767;28;20052;-62
2023/12/15 02:39:23;;;;;;;18.92;11.82;;;;;;;9.94;100.00;102532.16;5073664;28;20059;-62
2023/12/15 02:41:50;;;;;;;21.17;12.65;;;;;;;9.76;100.00;102533.41;5090537;28;20075;-62
2023/12/15 02:44:18;;;;;;;18.67;11.85;;;;;;;9.62;100.00;102535.00;5091995;28;20075;-62
2023/12/15 02:46:45;;;;;;;19.63;12.32;;;;;;;9.83;100.00;102542.28;5097883;28;20044;-62
2023/12/15 02:49:12;;;;;;;19.58;12.65;;;;;;;9.69;100.00;102535.56;5112936;28;20047;-62
2023/12/15 02:51:40;;;;;;;19.60;11.23;;;;;;;9.70;100.00;102547.41;5112818;28;20050;-62
2023/12/15 02:54:09;;;;;;;18.83;10.88;;;;;;;9.60;100.00;102548.16;5112611;28;20039;-61
2023/12/15 02:56:36;;;;;;;20.15;11.73;;;;;;;9.28;100.00;102560.22;5090333;28;20066;-63
2023/12/15 02:59:03;;;;;;;18.83;11.50;;;;;;;9.29;100.00;102564.66;5094234;28;20044;-62
2023/12/15 03:01:30;;;;;;;20.10;12.38;;;;;;;9.41;100.00;102568.06;5112683;28;20054;-61
2023/12/15 03:03:58;;;;;;;20.55;11.65;;;;;;;9.31;100.00;102571.53;5112346;28;20039;-61
2023/12/15 03:06:25;;;;;;;21.05;11.82;;;;;;;9.68;100.00;102569.69;5112803;28;20040;-63
2023/12/15 03:08:52;;;;;;;19.08;10.52;;;;;;;9.59;100.00;102581.44;5112975;28;20105;-62
2023/12/15 03:11:19;;;;;;;16.98;10.82;;;;;;;9.49;100.00;102579.41;5111814;28;20059;-64
2023/12/15 03:13:46;;;;;;;22.52;11.13;;;;;;;9.48;100.00;102591.53;5110391;28;20047;-62
2023/12/15 03:16:14;;;;;;;17.13;10.38;;;;;;;9.70;100.00;102589.53;5090959;28;20055;-61
2023/12/15 03:18:41;;;;;;;18.20;10.90;;;;;;;9.34;100.00;102593.03;5075814;28;20056;-62
2023/12/15 03:24:22;;;;;;;18.13;9.57;;;;;;;9.22;100.00;102599.78;5058275;28;20048;-61
2023/12/15 03:26:50;;;;;;;16.08;9.10;;;;;;;9.13;100.00;102606.81;5103184;28;20056;-61
2023/12/15 03:29:17;;;;;;;15.40;9.07;;;;;;;9.44;100.00;102604.13;5095999;28;20055;-62
2023/12/15 03:31:45;;;;;;;15.77;9.25;;;;;;;9.62;100.00;102605.69;5096269;28;20040;-62
2023/12/15 03:34:12;;;;;;;15.65;9.32;;;;;;;9.40;100.00;102613.16;5104908;28;20052;-62
2023/12/15 03:36:39;;;;;;;14.75;9.13;;;;;;;9.15;100.00;102610.13;5094923;28;20052;-62
2023/12/15 03:39:07;;;;;;;15.88;8.82;;;;;;;9.26;100.00;102617.41;5094414;28;20081;-63
2023/12/15 03:41:35;;;;;;;18.75;8.98;;;;;;;9.40;100.00;102615.91;5060374;28;20040;-62
2023/12/15 03:44:02;;;;;;;13.63;8.93;;;;;;;9.39;100.00;102617.00;5095918;28;20533;-62
2023/12/15 03:46:30;;;;;;;15.20;9.02;;;;;;;9.51;100.00;102624.00;5100365;28;20044;-64
2023/12/15 03:48:57;;;;;;;14.00;8.77;;;;;;;9.44;100.00;102626.13;5116216;28;20051;-62
2023/12/15 03:51:24;;;;;;;14.93;9.40;;;;;;;9.48;100.00;102637.44;5115968;28;20056;-62
2023/12/15 03:53:52;;;;;;;15.45;9.90;;;;;;;9.64;100.00;102647.53;5094029;28;20050;-63
2023/12/15 03:56:25;;;;;;;16.52;9.85;;;;;;;9.55;100.00;102646.31;5076310;28;20044;-61
2023/12/15 03:58:53;;;;;;;16.13;10.27;;;;;;;9.40;100.00;102643.41;5095320;28;20075;-61
2023/12/15 04:01:24;;;;;;;15.88;9.93;;;;;;;9.27;100.00;102650.16;5106808;28;20044;-61
2023/12/15 04:03:54;;;;;;;20.15;10.38;;;;;;;9.25;100.00;102648.75;5113841;28;20054;-61
2023/12/15 04:06:21;;;;;;;17.27;10.75;;;;;;;9.28;100.00;102659.22;5116362;28;20040;-62
2023/12/15 04:08:50;;;;;;;16.38;9.95;;;;;;;9.34;100.00;102664.53;5076675;28;20032;-62
2023/12/15 04:11:18;;;;;;;17.50;10.10;;;;;;;9.35;100.00;102666.19;5080164;28;20050;-63
2023/12/15 04:13:51;;;;;;;16.02;10.32;;;;;;;9.32;100.00;102672.22;5093875;28;20052;-63
2023/12/15 04:16:26;;;;;;;19.30;11.40;;;;;;;9.44;100.00;102674.81;5077604;28;20056;-62
2023/12/15 04:18:57;;;;;;;20.65;11.68;;;;;;;9.45;100.00;102668.22;5092483;28;20056;-62
2023/12/15 04:21:26;;;;;;;17.17;10.48;;;;;;;9.72;100.00;102680.91;5093197;28;20059;-62
2023/12/15 04:23:54;;;;;;;20.83;10.73;;;;;;;9.66;100.00;102684.69;5077059;28;20048;-62
2023/12/15 04:26:21;;;;;;;17.92;10.93;;;;;;;9.50;100.00;102690.28;5077814;28;20048;-63
2023/12/15 04:28:48;;;;;;;18.23;10.75;;;;;;;9.58;100.00;102689.81;5072275;28;20056;-62
2023/12/15 04:31:16;;;;;;;18.00;11.02;;;;;;;9.66;100.00;102687.44;5072379;28;20044;-64
2023/12/15 04:33:43;;;;;;;17.33;11.05;;;;;;;9.72;100.00;102689.16;5073602;28;20036;-62
2023/12/15 04:36:11;;;;;;;18.50;11.13;;;;;;;9.44;100.00;102692.16;5073280;28;20075;-61
2023/12/15 04:38:38;;;;;;;16.88;10.57;;;;;;;9.59;100.00;102697.00;5073396;28;20048;-61
2023/12/15 04:41:06;;;;;;;18.75;11.27;;;;;;;9.78;100.00;102703.81;5071054;28;20484;-61
2023/12/15 04:43:33;;;;;;;17.65;10.35;;;;;;;9.59;100.00;102705.25;5072190;28;20063;-63
2023/12/15 04:46:00;;;;;;;20.20;11.23;;;;;;;9.46;100.00;102711.97;5073520;28;20048;-61
2023/12/15 04:48:27;;;;;;;19.27;11.80;;;;;;;9.75;100.00;102715.31;5084042;28;20052;-61
2023/12/15 04:50:55;;;;;;;20.05;11.35;;;;;;;9.56;100.00;102712.09;5053635;28;20064;-61
2023/12/15 04:53:22;;;;;;;17.13;10.95;;;;;;;9.63;100.00;102723.72;5054679;28;20629;-63
2023/12/15 04:55:49;;;;;;;17.42;10.80;;;;;;;9.69;100.00;102719.13;5059283;28;20590;-62
2023/12/15 04:58:17;;;;;;;17.17;10.00;;;;;;;9.77;100.00;102726.88;5072294;28;20411;-62
2023/12/15 05:00:45;;;;;;;15.65;10.40;;;;;;;9.67;100.00;102724.88;5074204;28;20674;-66
2023/12/15 05:03:12;;;;;;;22.83;10.95;;;;;;;9.64;100.00;102725.38;5074220;28;20055;-62
2023/12/15 05:05:39;;;;;;;22.13;10.88;;;;;;;9.74;100.00;102728.25;5094718;28;20059;-61
2023/12/15 05:08:16;;;;;;;18.52;10.95;;;;;;;9.82;100.00;102732.44;5059181;28;20056;-61
2023/12/15 05:10:43;;;;;;;18.15;10.55;;;;;;;9.84;100.00;102725.59;5062138;28;20045;-62
2023/12/15 05:13:13;;;;;;;17.42;10.20;;;;;;;10.02;100.00;102738.97;5051764;28;20053;-62
2023/12/15 05:15:40;;;;;;;20.83;11.07;;;;;;;9.99;100.00;102735.91;5057552;28;20067;-62
2023/12/15 05:18:07;;;;;;;18.17;10.63;;;;;;;10.13;100.00;102742.69;5098990;28;20055;-62
2023/12/15 05:20:38;;;;;;;17.95;10.27;;;;;;;10.09;100.00;102752.59;5075822;28;20051;-63
2023/12/15 05:23:05;;;;;;;19.48;10.20;;;;;;;10.19;100.00;102744.41;5075948;28;20048;-62
2023/12/15 05:25:32;;;;;;;15.55;9.75;;;;;;;10.30;100.00;102757.19;5093380;28;20048;-61
2023/12/15 05:28:00;;;;;;;16.00;9.80;;;;;;;10.23;100.00;102751.06;5095248;28;20047;-61
2023/12/15 05:30:27;;;;;;;20.77;10.65;;;;;;;10.33;100.00;102745.66;5096162;28;20652;-61
2023/12/15 05:32:54;;;;;;;15.55;9.70;;;;;;;10.22;100.00;102752.16;5095608;28;20036;-61
2023/12/15 05:35:22;;;;;;;17.85;10.60;;;;;;;10.12;100.00;102749.31;5062601;28;20044;-61
2023/12/15 05:37:50;;;;;;;20.80;10.02;;;;;;;10.20;100.00;102743.31;5080363;28;20418;-62
2023/12/15 05:40:17;;;;;;;17.42;10.32;;;;;;;10.19;100.00;102738.91;5078866;28;20048;-63
2023/12/15 05:42:45;;;;;;;15.48;10.02;;;;;;;10.07;100.00;102750.06;5112983;28;20040;-61
2023/12/15 05:45:12;;;;;;;19.73;11.10;;;;;;;10.29;100.00;102755.50;5107468;28;20059;-62
2023/12/15 05:47:40;;;;;;;17.90;10.05;;;;;;;10.44;100.00;102749.31;5106187;28;20055;-62
2023/12/15 05:50:11;;;;;;;19.50;11.02;;;;;;;10.33;99.15;102748.41;5113612;28;20052;-62
2023/12/15 05:52:42;;;;;;;16.17;9.93;;;;;;;10.48;99.27;102761.47;5112795;28;20044;-63
2023/12/15 05:55:09;;;;;;;;;;;;;;;10.68;98.50;102767.97;5114740;28;20043;-61
2023/12/15 05:57:36;;;;;;;20.08;10.75;;;;;;;10.50;98.15;102759.28;5111571;28;19923;-61
2023/12/15 06:00:04;;;;;;;18.85;10.57;;;;;;;10.36;99.42;102767.16;5095296;28;20063;-62
2023/12/15 06:02:31;;;;;;;18.48;10.88;;;;;;;10.44;99.39;102769.44;5112561;28;20055;-62
2023/12/15 06:04:58;;;;;;;21.85;10.02;;;;;;;10.60;98.86;102765.69;5098832;28;20056;-61
2023/12/15 06:07:26;;;;;;;17.02;10.07;;;;;;;10.62;97.77;102758.00;5082925;28;20047;-61
2023/12/15 06:09:53;;;;;;;18.88;10.30;;;;;;;10.66;97.95;102744.53;5113455;28;20121;-63
2023/12/15 06:12:21;;;;;;;17.73;10.15;;;;;;;10.70;97.41;102742.91;5113405;28;20063;-62
2023/12/15 06:14:48;;;;;;;16.92;10.68;;;;;;;10.20;99.21;102757.91;5109274;28;20040;-61
2023/12/15 06:17:25;;;;;;;20.65;11.07;;;;;;;10.27;100.00;102765.16;5092354;28;20055;-63
2023/12/15 06:20:18;;;;;;;19.13;11.40;;;;;;;10.33;100.00;102772.34;5092163;28;20043;-61
2023/12/15 06:22:56;;;;;;;18.40;11.52;;;;;;;10.19;100.00;102770.03;5092200;28;20044;-62
2023/12/15 06:25:26;;;;;;;23.00;11.65;;;;;;;10.28;100.00;102766.81;5100429;28;20059;-62
2023/12/15 06:27:54;;;;;;;18.67;11.15;;;;;;;10.46;100.00;102781.00;5094288;28;20054;-62
2023/12/15 06:30:21;;;;;;;21.95;11.55;;;;;;;10.57;98.87;102791.03;5095342;28;20402;-63
2023/12/15 06:32:49;;;;;;;18.58;12.07;;;;;;;10.40;98.47;102793.09;5074772;28;20055;-63
2023/12/15 06:35:16;;;;;;;18.67;11.68;;;;;;;10.43;99.39;102791.72;5108708;28;20055;-62
2023/12/15 06:37:44;;;;;;;17.63;11.05;;;;;;;10.52;99.02;102792.91;5108459;28;20052;-62
2023/12/15 06:40:12;;;;;;;21.95;11.02;;;;;;;10.87;97.32;102796.78;5075190;28;20055;-60
2023/12/15 06:42:39;;;;;;;17.60;11.07;;;;;;;10.66;96.50;102794.97;5078226;28;20062;-63
2023/12/15 06:45:08;;;;;;;20.10;11.30;;;;;;;10.62;96.05;102801.25;5074576;28;20056;-62
2023/12/15 06:47:39;;;;;;;21.20;12.02;;;;;;;10.84;96.65;102800.06;5104819;28;20043;-62
2023/12/15 06:50:07;;;;;;;27.08;17.15;;;;;;;10.76;96.05;102792.28;5112469;28;20066;-61
2023/12/15 06:52:35;;;;;;;21.65;12.30;;;;;;;10.77;96.40;102802.22;5077244;28;20059;-60
2023/12/15 06:55:03;;;;;;;18.13;11.35;;;;;;;10.61;96.73;102807.88;5094986;28;20044;-63
2023/12/15 06:57:31;;;;;;;22.58;12.77;;;;;;;10.59;97.46;102824.66;5096910;28;20044;-62
2023/12/15 06:59:58;;;;;;;24.98;11.88;;;;;;;10.52;97.65;102848.00;5110630;28;20052;-61
2023/12/15 07:02:25;;;;;;;20.88;12.25;;;;;;;10.15;100.00;102854.25;5116849;28;20517;-61
2023/12/15 07:04:52;;;;;;;23.35;13.02;;;;;;;10.12;100.00;102846.53;5102186;28;20518;-62
2023/12/15 07:07:20;;;;;;;21.35;12.05;;;;;;;10.16;100.00;102852.34;5085219;28;20067;-61
2023/12/15 07:09:47;;;;;;;19.65;11.75;;;;;;;10.23;100.00;102853.78;5108064;28;20047;-61
2023/12/15 07:12:14;;;;;;;17.48;11.18;;;;;;;10.31;99.91;102865.44;5096394;28;20601;-62
2023/12/15 07:14:41;;;;;;;23.13;12.63;;;;;;;9.95;100.00;102881.53;5099123;28;20386;-61
2023/12/15 07:17:09;;;;;;;21.25;12.02;;;;;;;9.78;100.00;102890.94;5098571;28;20052;-61
2023/12/15 07:19:36;;;;;;;21.42;12.77;;;;;;;9.86;100.00;102898.75;5116856;28;20078;-62
2023/12/15 07:22:03;;;;;;;20.00;11.07;;;;;;;10.15;100.00;102897.47;5098082;28;20678;-62
2023/12/15 07:24:30;;;;;;;20.42;11.95;;;;;;;10.06;100.00;102897.06;5097807;28;20047;-62
2023/12/15 07:26:58;;;;;;;24.27;12.23;;;;;;;9.89;100.00;102910.06;5116423;28;20059;-62
2023/12/15 07:29:25;;;;;;;21.30;11.77;;;;;;;9.91;100.00;102902.41;5115986;28;20047;-62
2023/12/15 07:31:52;;;;;;;24.48;12.65;;;;;;;9.83;100.00;102893.75;5115977;28;20050;-61
2023/12/15 07:34:20;;;;;;;24.27;12.27;;;;;;;10.06;100.00;102890.72;5107953;28;20491;-62
2023/12/15 07:36:47;;;;;;;29.33;11.93;;;;;;;10.17;100.00;102901.66;5080158;28;20047;-62
2023/12/15 07:39:21;;;;;;;28.70;13.70;;;;;;;10.29;100.00;102900.69;5116318;28;20053;-62
2023/12/15 07:41:48;;;;;;;26.15;12.50;;;;;;;10.18;100.00;102910.75;5116036;28;20149;-64
2023/12/15 07:44:16;;;;;;;26.77;12.85;;;;;;;10.12;100.00;102912.63;5096913;28;20055;-61
2023/12/15 07:46:43;;;;;;;23.55;12.27;;;;;;;10.28;100.00;102921.03;5115961;28;20043;-61
2023/12/15 07:49:11;;;;;;;18.50;11.05;;;;;;;10.40;99.96;102922.56;5097833;28;20055;-62
2023/12/15 07:51:38;;;;;;;18.15;11.27;;;;;;;10.62;98.03;102931.63;5097732;28;20047;-61
2023/12/15 07:54:05;;;;;;;20.30;10.55;;;;;;;10.62;97.37;102926.09;5097965;28;20113;-63
2023/12/15 07:56:33;;;;;;;19.73;10.82;;;;;;;10.58;97.12;102926.91;5116219;28;20051;-62
2023/12/15 07:59:00;;;;;;;24.73;11.50;;;;;;;10.66;96.26;102926.41;5116036;28;20386;-63
2023/12/15 08:01:28;;;;;;;22.02;11.65;;;;;;;10.55;96.37;102931.00;5115937;28;20052;-65
2023/12/15 08:03:56;;;;;;;19.85;11.88;;;;;;;10.62;96.67;102934.38;5097316;28;20032;-62
2023/12/15 08:06:23;;;;;;;19.58;11.80;;;;;;;10.55;96.76;102942.00;5114763;28;20054;-63
2023/12/15 08:08:52;;;;;;;21.33;12.73;;;;;;;10.62;96.38;102941.78;5097216;28;20058;-64
2023/12/15 08:11:19;;;;;;;19.92;11.88;;;;;;;10.63;96.58;102940.72;5101080;28;20075;-63
2023/12/15 08:13:47;;;;;;;23.48;13.10;;;;;;;10.57;96.15;102948.09;5093171;28;20059;-62
2023/12/15 08:16:14;;;;;;;19.23;12.68;;;;;;;10.80;96.12;102953.31;5095928;28;20052;-62
2023/12/15 08:18:42;;;;;;;29.70;13.77;;;;;;;10.47;96.21;102961.78;5110482;28;20051;-62
2023/12/15 08:21:10;;;;;;;23.25;12.38;;;;;;;10.50;96.41;102960.41;5095526;28;20063;-62
2023/12/15 08:23:38;;;;;;;23.73;13.80;;;;;;;10.53;97.18;102963.47;5114653;28;20066;-62
2023/12/15 08:26:05;;;;;;;20.65;13.35;;;;;;;10.81;96.25;102963.22;5104497;28;20048;-62
2023/12/15 08:28:32;;;;;;;22.27;13.43;;;;;;;10.69;94.83;102964.47;5092990;28;20054;-62
2023/12/15 08:31:00;;;;;;;22.77;13.75;;;;;;;10.49;96.16;102970.63;5110491;28;20150;-61
2023/12/15 08:33:28;;;;;;;22.98;13.57;;;;;;;10.41;96.17;102970.25;5090657;28;20048;-62
2023/12/15 08:35:55;;;;;;;24.80;14.15;;;;;;;10.53;96.83;102960.72;5078567;28;20048;-63
2023/12/15 08:38:24;;;;;;;29.25;15.07;;;;;;;10.70;96.67;102968.91;5059709;28;20048;-62
2023/12/15 08:40:54;;;;;;;23.30;14.85;;;;;;;11.00;95.22;102978.31;5102921;28;20050;-61
2023/12/15 08:43:21;;;;;;;21.48;14.15;;;;;;;10.80;95.03;102978.13;5113325;28;20051;-62
2023/12/15 08:45:48;;;;;;;24.33;13.95;;;;;;;10.75;95.66;102980.84;5113043;28;20051;-62
2023/12/15 08:48:15;;;;;;;24.30;13.82;;;;;;;11.01;94.89;103006.72;5103990;28;20054;-62
2023/12/15 08:50:43;;;;;;;21.95;13.30;;;;;;;11.05;94.65;102994.91;5094658;28;20055;-62
2023/12/15 08:53:12;;;;;;;22.75;14.65;;;;;;;10.86;95.02;102992.81;5102927;28;20552;-61
2023/12/15 08:55:39;;;;;;;24.20;13.95;;;;;;;11.15;94.80;102996.94;5114677;28;20052;-62
2023/12/15 08:58:06;;;;;;;25.05;14.88;;;;;;;11.06;94.38;103002.09;5088133;28;20074;-62
2023/12/15 09:00:34;;;;;;;24.10;14.45;;;;;;;11.34;93.93;102996.28;5087834;28;20074;-62
2023/12/15 09:03:02;;;;;;;27.02;14.82;;;;;;;11.19;93.93;102996.13;5097931;28;20517;-62
2023/12/15 09:05:29;;;;;;;26.60;14.35;;;;;;;11.29;93.35;103000.94;5113207;28;20059;-62
2023/12/15 09:08:17;;;;;;;28.98;15.73;;;;;;;11.27;94.20;102992.91;5105326;28;20052;-63
2023/12/15 09:10:46;;;;;;;23.25;14.77;;;;;;;11.20;93.80;102997.81;5076594;28;20044;-61
2023/12/15 09:13:14;;;;;;;27.58;15.57;;;;;;;11.32;93.82;103009.50;5074652;28;20079;-63
2023/12/15 09:15:41;;;;;;;29.33;15.25;;;;;;;11.27;93.86;103008.63;5108976;28;20059;-62
2023/12/15 09:18:08;;;;;;;26.83;15.10;;;;;;;11.27;94.17;103009.47;5108032;28;20060;-62
2023/12/15 09:20:37;;;;;;;32.38;15.07;;;;;;;11.15;94.68;103008.81;5076461;28;20044;-62
2023/12/15 09:23:07;;;;;;;28.45;14.95;;;;;;;11.27;94.37;103025.19;5094423;28;20052;-62
2023/12/15 09:25:35;;;;;;;26.60;14.40;;;;;;;11.15;94.55;103030.03;5093609;28;20050;-62
2023/12/15 09:28:05;;;;;;;23.50;15.23;;;;;;;11.09;94.79;103026.38;5112837;28;20070;-62
2023/12/15 09:30:32;;;;;;;27.00;14.93;;;;;;;11.20;94.69;103021.81;5105179;27;20044;-62
2023/12/15 09:33:00;;;;;;;22.67;14.63;;;;;;;11.40;94.18;103022.00;5128871;27;20043;-63
2023/12/15 09:35:29;;;;;;;24.02;14.13;;;;;;;11.19;94.90;103028.44;5113563;28;20036;-62
2023/12/15 09:37:56;;;;;;;23.38;13.65;;;;;;;11.14;95.36;103026.44;5058717;28;20410;-63
2023/12/15 09:40:23;;;;;;;29.17;14.48;;;;;;;11.41;94.58;103033.84;5093754;28;20526;-62
2023/12/15 09:42:50;;;;;;;24.83;14.50;;;;;;;11.53;93.85;103031.75;5093185;28;20048;-62
2023/12/15 09:45:18;;;;;;;23.10;13.77;;;;;;;11.51;93.89;103022.88;5074430;28;20139;-62
2023/12/15 09:47:46;;;;;;;29.92;14.90;;;;;;;11.69;93.65;103036.34;5100912;28;20059;-62
2023/12/15 09:50:16;;;;;;;23.42;13.98;;;;;;;11.59;93.48;103045.34;5074177;28;20052;-63
2023/12/15 09:52:44;;;;;;;25.02;14.07;;;;;;;11.30;94.25;103055.84;5093078;28;20055;-62
2023/12/15 09:55:11;;;;;;;24.05;13.38;;;;;;;11.46;95.17;103064.25;5058286;28;20052;-63
2023/12/15 09:57:39;;;;;;;23.38;13.98;;;;;;;11.66;93.99;103070.84;5093220;28;20048;-62
2023/12/15 10:00:09;;;;;;;25.17;14.07;;;;;;;11.62;94.31;103066.06;5109530;28;20054;-61
2023/12/15 10:02:40;;;;;;;31.55;14.55;;;;;;;11.53;94.56;103068.47;5084711;28;20565;-63
2023/12/15 10:05:08;;;;;;;28.73;16.75;;;;;;;11.75;94.23;103069.22;5079102;28;20680;-63
2023/12/15 10:07:35;;;;;;;29.05;17.25;;;;;;;11.88;93.49;103073.47;5102351;28;20379;-62
2023/12/15 10:10:03;;;;;;;24.88;14.38;;;;;;;11.88;93.21;103077.06;5113354;28;20422;-62
2023/12/15 10:12:30;;;;;;;21.83;14.07;;;;;;;11.88;93.02;103073.47;5112548;28;20051;-62
2023/12/15 10:14:58;;;;;;;23.85;13.18;;;;;;;11.75;93.43;103068.41;5107002;28;20044;-62
2023/12/15 10:17:25;;;;;;;26.80;12.82;;;;;;;11.74;93.39;103075.00;5084128;28;20419;-62
2023/12/15 10:20:11;;;;;;;24.65;13.07;;;;;;;11.87;92.98;103080.91;5074364;28;20052;-61
2023/12/15 10:22:39;;;;;;;28.02;14.10;;;;;;;12.05;92.48;103082.44;5091788;28;20059;-63
2023/12/15 10:25:17;;;;;;;27.17;13.35;;;;;;;12.07;91.79;103085.75;5059656;28;20047;-62
2023/12/15 10:27:44;;;;;;;27.00;13.48;;;;;;;12.06;90.99;103081.34;5076846;28;20048;-62
2023/12/15 10:30:12;;;;;;;24.35;13.73;;;;;;;12.17;90.50;103088.59;5092116;28;20051;-62
2023/12/15 10:32:39;;;;;;;24.92;13.52;;;;;;;12.12;90.29;103091.31;5095393;28;20086;-62
2023/12/15 10:35:09;;;;;;;24.25;14.13;;;;;;;11.92;89.86;103099.47;5088805;28;20048;-62
2023/12/15 10:37:37;;;;;;;25.92;15.25;;;;;;;11.38;93.99;103107.78;5077614;28;20632;-61
2023/12/15 10:40:05;;;;;;;24.70;15.00;;;;;;;11.40;95.55;103114.97;5101872;28;20060;-61
2023/12/15 10:42:35;;;;;;;27.88;16.17;;;;;;;11.42;95.86;103123.84;5092368;28;20059;-62
2023/12/15 10:45:06;;;;;;;28.88;15.70;;;;;;;11.29;96.78;103138.88;5090880;28;20056;-63
2023/12/15 10:47:34;;;;;;;33.78;15.65;;;;;;;11.51;96.88;103122.25;5104323;28;20062;-63
2023/12/15 10:50:02;;;;;;;31.85;15.98;;;;;;;11.64;96.57;103127.38;5094523;28;20047;-62
2023/12/15 10:52:33;;;;;;;33.05;16.33;;;;;;;11.92;95.41;103124.31;5112300;28;20048;-61
2023/12/15 10:55:04;;;;;;;32.17;16.55;;;;;;;11.94;93.89;103138.72;5113123;28;20043;-61
2023/12/15 10:57:31;;;;;;;29.25;15.88;;;;;;;11.49;96.93;103136.31;5112800;28;20051;-61
2023/12/15 11:00:04;;;;;;;27.35;17.13;;;;;;;11.39;97.06;103144.50;5100627;28;20275;-62
2023/12/15 11:02:33;;;;;;;33.45;21.38;;;;;;;11.37;98.21;103148.63;5100765;28;20074;-63
2023/12/15 11:05:01;;;;;;;27.42;17.45;;;;;;;11.37;98.63;103165.19;5094369;28;20053;-61
2023/12/15 11:07:28;;;;;;;28.35;15.85;;;;;;;11.34;100.00;103178.41;5090875;28;20051;-62
2023/12/15 11:09:59;;;;;;;32.83;16.30;;;;;;;11.53;99.62;103186.31;5092391;28;20056;-63
2023/12/15 11:12:32;;;;;;;30.45;16.05;;;;;;;11.60;98.70;103185.03;5091023;28;20051;-62
2023/12/15 11:15:05;;;;;;;29.98;16.27;;;;;;;11.56;98.61;103189.38;5097917;28;20054;-62
2023/12/15 11:17:33;;;;;;;26.30;15.15;;;;;;;11.53;98.70;103194.59;5112637;28;20066;-62
2023/12/15 11:20:10;;;;;;;29.75;16.50;;;;;;;11.38;99.45;103200.78;5094439;28;20056;-62